Centennial Airport
KAPA : now visible

Airfield :











YOU CAN JOIN US ON...

 
LOGIN :

Register | Disclaimer

   EN    FR    IT 

 









Legend :    VFR   Marginal VFR   IFR   Intensive IFR   Very Intensive IFR
Visi :
Ceiling :
>= 8 km
>= 3000ft
5 to 8 km
1000 to 3000 ft
1500m to 5 km
500 to 1000 ft
800 to 1500m
200 to 500 ft
< 800m
< 200 ft
Symbols :   Thunderstorms  Fog  Heavy snow  Heavy precipitations  Wind > 20 kt







- Airport Elevation : 5885 ft


KAPA - Centennial

CURRENT METAR :
  • 201553Z 21013G24KT 10SM FEW220 25/02 A2989 RMK AO2 SLP045 T02500022

EXPIRED METARs :
  • 201453Z 20010G20KT 10SM FEW220 22/06 A2991 RMK AO2 SLP052 T02170061 50003
  • 201353Z 16007KT 10SM FEW140 FEW220 19/07 A2991 RMK AO2 SLP058 T01890067

TAF KAPA
Valid from the 20 at 12:00 until the 21 at 12:00 UTC


201124Z 2012/2112 18011KT P6SM SCT150
FM201500 22014G22KT P6SM FEW140
FM202000 22020G32KT P6SM FEW120 SCT220
FM210100 25011KT P6SM FEW120
FM210500 30011KT P6SM SKC
FM210800 VRB05KT P6SM SKC
No reported NOTAMs for that airfield.



MET'MAP, your aeronautical weather chart ! - Copyright ORBIFLY December 2007 - Disclaimer

ORBIFLY MET'MAP TEAM :

Programming & Development : Alexandra Zaïnal
Concept & Development : Baudouin d'Aumeries
Co-Development & Prog : Marc-Olivier Méhu
Technical & hardware support : Manuel Goepfert

Contact : metmap@orbifly.com




SOURCES & CREDITS :

   NOAA       Earth
Advisory